Time;durP1;ratioP1;P1;durP2;ratioP2;P2;SDS_P1;SDS_P2;PMS_P1;PMS_P2;Temp;Humidity;BMP_temperature;BMP_pressure;BME280_temperature;BME280_humidity;BME280_pressure;Samples;Min_cycle;Max_cycle;Signal;HPM_P1;HPM_P2
2020/12/10 00:02:11;;;;;;;53.75;26.25;;;0.30;99.90;;;;;;5091034;28;20036;-74
2020/12/10 00:04:37;;;;;;;48.45;25.02;;;0.30;99.90;;;;;;5086982;28;20847;-74
2020/12/10 00:07:03;;;;;;;52.50;26.38;;;0.30;99.90;;;;;;5085699;28;20094;-73
2020/12/10 00:09:29;;;;;;;48.70;26.02;;;0.30;99.90;;;;;;5067987;28;20036;-74
2020/12/10 00:11:55;;;;;;;57.42;27.70;;;0.30;99.90;;;;;;5091227;28;20028;-74
2020/12/10 00:14:20;;;;;;;64.38;27.88;;;0.30;99.90;;;;;;5087971;28;20032;-74
2020/12/10 00:16:49;;;;;;;55.97;26.83;;;0.30;99.90;;;;;;5092182;28;20117;-74
2020/12/10 00:19:15;;;;;;;56.35;26.45;;;0.30;99.90;;;;;;5091557;28;20094;-74
2020/12/10 00:21:41;;;;;;;52.03;26.75;;;0.30;99.90;;;;;;5092994;28;20080;-74
2020/12/10 00:24:07;;;;;;;68.32;26.55;;;0.30;99.90;;;;;;5086646;28;20036;-74
2020/12/10 00:26:32;;;;;;;50.08;24.85;;;0.30;99.90;;;;;;5085195;28;20051;-74
2020/12/10 00:28:58;;;;;;;53.22;26.30;;;0.30;99.90;;;;;;5085582;28;20032;-76
2020/12/10 00:31:24;;;;;;;51.00;25.60;;;0.30;99.90;;;;;;5066979;28;20028;-74
2020/12/10 00:33:49;;;;;;;54.65;25.73;;;0.30;99.90;;;;;;5086650;28;20127;-74
2020/12/10 00:36:15;;;;;;;48.25;24.02;;;0.30;99.90;;;;;;5082708;28;20032;-75
2020/12/10 00:38:41;;;;;;;49.47;24.13;;;0.30;99.90;;;;;;5087769;28;20039;-74
2020/12/10 00:41:07;;;;;;;53.33;24.95;;;0.30;99.90;;;;;;5083411;28;20036;-75
2020/12/10 00:43:33;;;;;;;50.75;24.05;;;0.30;99.90;;;;;;5090073;28;20031;-75
2020/12/10 00:46:04;;;;;;;51.63;23.42;;;0.30;99.90;;;;;;5087662;28;20122;-76
2020/12/10 00:48:31;;;;;;;48.08;23.30;;;0.30;99.90;;;;;;5085529;28;20575;-74
2020/12/10 00:50:57;;;;;;;52.50;24.48;;;0.30;99.90;;;;;;5082647;28;20054;-76
2020/12/10 00:53:23;;;;;;;56.42;25.52;;;0.30;99.90;;;;;;5079246;28;20067;-74
2020/12/10 00:55:48;;;;;;;62.22;28.88;;;0.30;99.90;;;;;;5082172;28;20505;-74
2020/12/10 00:58:14;;;;;;;56.42;26.50;;;0.30;99.90;;;;;;5085351;28;20040;-75
2020/12/10 01:00:40;;;;;;;50.28;25.17;;;0.30;99.90;;;;;;5074307;28;20039;-74
2020/12/10 01:03:06;;;;;;;52.10;25.23;;;0.30;99.90;;;;;;5082354;28;20032;-74
2020/12/10 01:05:31;;;;;;;50.83;24.80;;;0.30;99.90;;;;;;5080467;28;20046;-74
2020/12/10 01:07:57;;;;;;;46.55;22.92;;;0.30;99.90;;;;;;5074217;28;20039;-75
2020/12/10 01:10:23;;;;;;;48.88;24.75;;;0.30;99.90;;;;;;5084523;28;20020;-74
2020/12/10 01:12:48;;;;;;;50.03;25.02;;;0.30;99.90;;;;;;5082032;28;20381;-74
2020/12/10 01:15:14;;;;;;;54.80;26.23;;;0.30;99.90;;;;;;5086652;28;20842;-73
2020/12/10 01:17:41;;;;;;;63.85;29.08;;;0.40;99.90;;;;;;5085989;28;20078;-74
2020/12/10 01:20:09;;;;;;;60.42;27.23;;;0.40;99.90;;;;;;5080892;28;20036;-73
2020/12/10 01:22:35;;;;;;;57.42;25.77;;;0.40;99.90;;;;;;5083979;28;20115;-75
2020/12/10 01:25:00;;;;;;;59.90;26.58;;;0.40;99.90;;;;;;5080877;28;20049;-76
2020/12/10 01:27:26;;;;;;;56.30;25.65;;;0.40;99.90;;;;;;5084442;28;20044;-75
2020/12/10 01:29:52;;;;;;;55.83;26.98;;;0.40;99.90;;;;;;5071760;28;20020;-75
2020/12/10 01:32:17;;;;;;;54.83;25.85;;;0.30;99.90;;;;;;5083734;28;20017;-75
2020/12/10 01:34:43;;;;;;;50.30;25.52;;;0.30;99.90;;;;;;5086257;28;20016;-75
2020/12/10 01:37:09;;;;;;;54.13;26.00;;;0.30;99.90;;;;;;5090618;28;20043;-74
2020/12/10 01:39:35;;;;;;;57.35;27.40;;;0.40;99.90;;;;;;5090332;28;20032;-74
2020/12/10 01:42:01;;;;;;;58.22;27.52;;;0.30;99.90;;;;;;5089622;28;20024;-75
2020/12/10 01:44:27;;;;;;;58.40;25.23;;;0.40;99.90;;;;;;5089699;28;20055;-73
2020/12/10 01:46:53;;;;;;;53.83;25.08;;;0.30;99.90;;;;;;5090722;28;20062;-74
2020/12/10 01:49:19;;;;;;;51.38;26.13;;;0.30;99.90;;;;;;5090005;28;20028;-74
2020/12/10 01:51:45;;;;;;;49.78;23.90;;;0.30;99.90;;;;;;5089706;28;20028;-74
2020/12/10 01:54:11;;;;;;;49.63;23.67;;;0.30;99.90;;;;;;5088210;28;20039;-73
2020/12/10 01:56:37;;;;;;;49.25;23.42;;;0.30;99.90;;;;;;5086991;28;20032;-73
2020/12/10 01:59:04;;;;;;;51.30;24.42;;;0.30;99.90;;;;;;5087764;28;20035;-74
2020/12/10 02:01:31;;;;;;;55.05;26.58;;;0.30;99.90;;;;;;5091480;28;20058;-73
2020/12/10 02:03:57;;;;;;;52.60;24.70;;;0.30;99.90;;;;;;5088876;28;20123;-74
2020/12/10 02:06:23;;;;;;;52.55;26.02;;;0.30;99.90;;;;;;5088890;28;20024;-73
2020/12/10 02:08:49;;;;;;;52.00;24.42;;;0.30;99.90;;;;;;5090255;28;20032;-73
2020/12/10 02:11:14;;;;;;;52.33;23.27;;;0.30;99.90;;;;;;5088451;28;20025;-73
2020/12/10 02:13:41;;;;;;;55.60;25.92;;;0.30;99.90;;;;;;5087217;28;20023;-74
2020/12/10 02:16:08;;;;;;;58.85;26.50;;;0.30;99.90;;;;;;5086727;28;20035;-74
2020/12/10 02:18:34;;;;;;;55.30;25.85;;;0.30;99.90;;;;;;5089827;28;20023;-74
2020/12/10 02:21:01;;;;;;;48.78;25.33;;;0.30;99.90;;;;;;5090451;28;20032;-75
2020/12/10 02:23:27;;;;;;;56.20;26.92;;;0.30;99.90;;;;;;5086143;28;20040;-73
2020/12/10 02:25:52;;;;;;;52.78;25.33;;;0.30;99.90;;;;;;5062674;28;20126;-73
2020/12/10 02:28:19;;;;;;;54.95;26.10;;;0.30;99.90;;;;;;5067906;28;20173;-73
2020/12/10 02:30:47;;;;;;;52.45;25.30;;;0.30;99.90;;;;;;5069077;28;20028;-73
2020/12/10 02:33:13;;;;;;;53.35;25.60;;;0.30;99.90;;;;;;5066356;28;20032;-74
2020/12/10 02:35:40;;;;;;;47.70;22.50;;;0.20;99.90;;;;;;5069033;28;20024;-73
2020/12/10 02:38:09;;;;;;;49.85;24.92;;;0.30;99.90;;;;;;5069459;28;20028;-73
2020/12/10 02:40:38;;;;;;;48.88;24.23;;;0.30;99.90;;;;;;5069264;28;20029;-74
2020/12/10 02:43:04;;;;;;;50.30;25.48;;;0.20;99.90;;;;;;5068233;28;20028;-74
2020/12/10 02:45:30;;;;;;;45.63;23.45;;;0.30;99.90;;;;;;5069351;28;20028;-74
2020/12/10 02:47:57;;;;;;;51.83;24.55;;;0.30;99.90;;;;;;5067809;28;20040;-75
2020/12/10 02:50:23;;;;;;;52.30;24.00;;;0.20;99.90;;;;;;5062027;28;21648;-73
2020/12/10 02:52:49;;;;;;;50.78;25.05;;;0.20;99.90;;;;;;5061575;28;20025;-74
2020/12/10 02:55:15;;;;;;;49.40;23.67;;;0.30;99.90;;;;;;5066848;28;20033;-73
2020/12/10 02:57:41;;;;;;;54.50;25.60;;;0.20;99.90;;;;;;5069610;28;20024;-74
2020/12/10 03:00:09;;;;;;;58.03;26.63;;;0.20;99.90;;;;;;5068313;28;20028;-74
2020/12/10 03:02:35;;;;;;;54.25;25.88;;;0.20;99.90;;;;;;5069601;28;20025;-74
2020/12/10 03:05:01;;;;;;;45.00;23.80;;;0.20;99.90;;;;;;5078988;28;20028;-75
2020/12/10 03:07:27;;;;;;;54.70;26.27;;;0.20;99.90;;;;;;5082283;28;20094;-73
2020/12/10 03:09:52;;;;;;;53.95;25.25;;;0.20;99.90;;;;;;5064907;28;21780;-74
2020/12/10 03:12:18;;;;;;;49.47;24.45;;;0.20;99.90;;;;;;5057181;28;20028;-74
2020/12/10 03:14:44;;;;;;;53.80;25.33;;;0.20;99.90;;;;;;5069195;28;20027;-74
2020/12/10 03:17:10;;;;;;;56.45;25.50;;;0.20;99.90;;;;;;5057885;28;20158;-74
2020/12/10 03:19:36;;;;;;;50.58;24.73;;;0.20;99.90;;;;;;5067564;28;20060;-73
2020/12/10 03:22:01;;;;;;;51.28;24.42;;;0.20;99.90;;;;;;5067860;28;20024;-75
2020/12/10 03:24:27;;;;;;;45.15;24.02;;;0.20;99.90;;;;;;5068749;28;20037;-72
2020/12/10 03:26:53;;;;;;;54.30;25.88;;;0.20;99.90;;;;;;5089050;28;20044;-74
2020/12/10 03:29:18;;;;;;;52.33;25.35;;;0.20;99.90;;;;;;5083945;28;20116;-73
2020/12/10 03:31:44;;;;;;;54.70;26.08;;;0.10;99.90;;;;;;5089760;28;20023;-74
2020/12/10 03:34:10;;;;;;;50.45;25.05;;;0.10;99.90;;;;;;5088430;28;20024;-74
2020/12/10 03:36:48;;;;;;;51.42;25.17;;;0.10;99.90;;;;;;5086409;28;20028;-74
2020/12/10 03:39:13;;;;;;;52.08;25.05;;;0.10;99.90;;;;;;5087406;28;20063;-75
2020/12/10 03:41:39;;;;;;;51.75;24.75;;;0.10;99.90;;;;;;5087470;28;20508;-74
2020/12/10 03:44:05;;;;;;;50.78;24.60;;;0.10;99.90;;;;;;5088517;28;20024;-76
2020/12/10 03:46:31;;;;;;;50.15;22.90;;;0.10;99.90;;;;;;5087855;28;20081;-73
2020/12/10 03:48:56;;;;;;;54.63;26.65;;;0.10;99.90;;;;;;5087626;28;20063;-74
2020/12/10 03:51:22;;;;;;;54.90;25.92;;;0.10;99.90;;;;;;5062546;28;20028;-74
2020/12/10 03:53:48;;;;;;;53.65;25.63;;;0.10;99.90;;;;;;5088248;28;20099;-73
2020/12/10 03:56:13;;;;;;;58.80;27.50;;;0.10;99.90;;;;;;5087032;28;20059;-74
2020/12/10 03:58:39;;;;;;;52.45;25.15;;;0.10;99.90;;;;;;5063289;28;20048;-74
2020/12/10 04:01:05;;;;;;;58.90;27.63;;;0.10;99.90;;;;;;5087925;28;20024;-75
2020/12/10 04:03:31;;;;;;;60.15;26.52;;;0.10;99.90;;;;;;5088359;28;20046;-73
2020/12/10 04:05:56;;;;;;;56.15;26.30;;;0.10;99.90;;;;;;5064945;28;20036;-74
2020/12/10 04:08:22;;;;;;;54.70;27.17;;;0.10;99.90;;;;;;5088169;28;20618;-74
2020/12/10 04:10:47;;;;;;;52.45;25.88;;;0.10;99.90;;;;;;5087811;28;20461;-73
2020/12/10 04:13:13;;;;;;;50.47;25.60;;;0.10;99.90;;;;;;5088518;28;20059;-73
2020/12/10 04:15:39;;;;;;;56.17;27.17;;;0.10;99.90;;;;;;5062834;28;20029;-75
2020/12/10 04:18:04;;;;;;;58.60;27.20;;;0.10;99.90;;;;;;5087587;28;20028;-75
2020/12/10 04:20:30;;;;;;;56.10;25.05;;;0.10;99.90;;;;;;5088636;28;20085;-74
2020/12/10 04:22:55;;;;;;;54.10;25.42;;;0.10;99.90;;;;;;5087151;28;20235;-74
2020/12/10 04:25:21;;;;;;;55.55;26.45;;;0.10;99.90;;;;;;5086608;28;20052;-74
2020/12/10 04:27:47;;;;;;;54.08;26.77;;;0.10;99.90;;;;;;5087911;28;20067;-73
2020/12/10 04:30:12;;;;;;;59.28;27.40;;;0.10;99.90;;;;;;5062714;28;20024;-73
2020/12/10 04:32:38;;;;;;;56.97;25.88;;;0.10;99.90;;;;;;5088325;28;20526;-73
2020/12/10 04:35:04;;;;;;;59.72;27.75;;;0.10;99.90;;;;;;5085353;28;20024;-75
2020/12/10 04:37:29;;;;;;;62.30;28.90;;;0.10;99.90;;;;;;5064892;28;20071;-73
2020/12/10 04:39:55;;;;;;;67.13;28.45;;;0.10;99.90;;;;;;5067990;28;20393;-73
2020/12/10 04:42:20;;;;;;;70.03;29.88;;;0.10;99.90;;;;;;5091505;28;20039;-74
2020/12/10 04:44:46;;;;;;;56.92;26.88;;;0.10;99.90;;;;;;5092092;28;20115;-74
2020/12/10 04:47:13;;;;;;;58.58;27.25;;;0.10;99.90;;;;;;5091486;28;20036;-74
2020/12/10 04:49:40;;;;;;;54.53;26.10;;;0.10;99.90;;;;;;5090573;28;20028;-74
2020/12/10 04:52:11;;;;;;;62.25;27.55;;;0.00;99.90;;;;;;5087843;28;20029;-75
2020/12/10 04:54:37;;;;;;;59.20;27.08;;;0.10;99.90;;;;;;5090100;28;20028;-73
2020/12/10 04:57:04;;;;;;;61.40;27.80;;;0.10;99.90;;;;;;5089710;28;20039;-73
2020/12/10 04:59:30;;;;;;;72.47;30.23;;;0.10;99.90;;;;;;5065266;28;20028;-73
2020/12/10 05:01:55;;;;;;;68.35;31.77;;;0.10;99.90;;;;;;5090737;28;20028;-73
2020/12/10 05:04:24;;;;;;;69.50;31.27;;;0.10;99.90;;;;;;5090065;28;20059;-74
2020/12/10 05:06:50;;;;;;;72.50;31.13;;;0.10;99.90;;;;;;5062355;28;20419;-73
2020/12/10 05:09:17;;;;;;;66.15;29.98;;;0.10;99.90;;;;;;5088594;28;20449;-75
2020/12/10 05:11:44;;;;;;;70.93;30.73;;;0.10;99.90;;;;;;5088288;28;20024;-73
2020/12/10 05:14:09;;;;;;;68.05;29.38;;;0.10;99.90;;;;;;5090730;28;20020;-74
2020/12/10 05:16:35;;;;;;;68.40;30.23;;;0.10;99.90;;;;;;5091743;28;20483;-74
2020/12/10 05:19:17;;;;;;;72.60;30.63;;;0.10;99.90;;;;;;5065922;28;20024;-74
2020/12/10 05:22:04;;;;;;;62.95;28.48;;;0.10;99.90;;;;;;5090323;28;20028;-73
2020/12/10 05:24:30;;;;;;;64.88;30.08;;;0.10;99.90;;;;;;5069572;28;20037;-73
2020/12/10 05:27:16;;;;;;;67.28;30.27;;;0.10;99.90;;;;;;5090111;28;20031;-73
2020/12/10 05:29:43;;;;;;;74.43;31.42;;;0.10;99.90;;;;;;5090513;28;20055;-73
2020/12/10 05:32:27;;;;;;;79.40;33.35;;;0.10;99.90;;;;;;5089739;28;20029;-75
2020/12/10 05:34:53;;;;;;;80.20;32.95;;;0.10;99.90;;;;;;5089980;28;20107;-73
2020/12/10 05:37:31;;;;;;;74.20;32.35;;;0.10;99.90;;;;;;5088622;28;20126;-74
2020/12/10 05:39:59;;;;;;;63.05;28.70;;;0.10;99.90;;;;;;5089232;28;20366;-74
2020/12/10 05:42:33;;;;;;;59.25;28.55;;;0.10;99.90;;;;;;5089508;28;20024;-74
2020/12/10 05:45:01;;;;;;;65.05;29.00;;;0.10;99.90;;;;;;5088299;28;20032;-75
2020/12/10 05:47:30;;;;;;;69.05;29.55;;;0.10;99.90;;;;;;5088161;28;20144;-76
2020/12/10 05:49:57;;;;;;;59.80;27.77;;;0.10;99.90;;;;;;5090279;28;20036;-74
2020/12/10 05:52:25;;;;;;;64.30;27.48;;;0.10;99.90;;;;;;5088703;28;20031;-75
2020/12/10 05:54:56;;;;;;;59.97;28.42;;;0.10;99.90;;;;;;5087519;28;20028;-75
2020/12/10 05:57:22;;;;;;;57.28;26.67;;;0.10;99.90;;;;;;5064166;28;20043;-75
2020/12/10 05:59:49;;;;;;;48.58;24.92;;;0.10;99.90;;;;;;5089600;28;20028;-75
2020/12/10 06:02:18;;;;;;;47.67;23.42;;;0.10;99.90;;;;;;5089621;28;20499;-75
2020/12/10 06:04:45;;;;;;;46.92;24.15;;;0.10;99.90;;;;;;5089441;28;20033;-76
2020/12/10 06:07:11;;;;;;;45.47;22.73;;;0.10;99.90;;;;;;5089960;28;20054;-76
2020/12/10 06:09:39;;;;;;;57.28;27.02;;;0.10;99.90;;;;;;5090846;28;20067;-75
2020/12/10 06:12:07;;;;;;;43.08;23.58;;;0.10;99.90;;;;;;5064877;28;20143;-74
2020/12/10 06:14:49;;;;;;;49.22;23.90;;;0.10;99.90;;;;;;5090346;28;20027;-75
2020/12/10 06:17:14;;;;;;;49.13;23.13;;;0.10;99.90;;;;;;5089059;28;20035;-75
2020/12/10 06:19:41;;;;;;;44.65;21.63;;;0.10;99.90;;;;;;5063689;28;20024;-75
2020/12/10 06:22:31;;;;;;;42.08;21.02;;;0.10;99.90;;;;;;5088914;28;20028;-77
2020/12/10 06:24:58;;;;;;;41.15;19.98;;;0.10;99.90;;;;;;5087305;28;20118;-76
2020/12/10 06:27:26;;;;;;;42.95;21.95;;;0.10;99.90;;;;;;5061577;28;20037;-76
2020/12/10 06:30:11;;;;;;;41.20;20.98;;;0.10;99.90;;;;;;5089128;28;20028;-76
2020/12/10 06:32:48;;;;;;;43.13;21.33;;;0.10;99.90;;;;;;5090679;28;20031;-75
2020/12/10 06:35:34;;;;;;;48.83;22.88;;;0.10;99.90;;;;;;5066509;28;20036;-76
2020/12/10 06:38:04;;;;;;;39.15;22.52;;;0.10;99.90;;;;;;5086307;28;20039;-76
2020/12/10 06:40:40;;;;;;;46.17;23.70;;;0.10;99.90;;;;;;5088456;28;20036;-75
2020/12/10 06:43:07;;;;;;;47.80;23.08;;;0.10;99.90;;;;;;5064417;28;20516;-76
2020/12/10 06:45:39;;;;;;;49.10;22.75;;;0.10;99.90;;;;;;5089089;28;20031;-75
2020/12/10 06:48:07;;;;;;;49.85;24.42;;;0.10;99.90;;;;;;5067694;28;20059;-76
2020/12/10 06:50:40;;;;;;;51.33;25.60;;;0.20;99.90;;;;;;5087432;28;20044;-74
2020/12/10 06:53:24;;;;;;;51.55;25.13;;;0.20;99.90;;;;;;5062654;28;20055;-76
2020/12/10 06:55:59;;;;;;;49.53;23.88;;;0.20;99.90;;;;;;5085810;28;20028;-76
2020/12/10 06:58:37;;;;;;;45.25;22.00;;;0.20;99.90;;;;;;5087973;28;20081;-75
2020/12/10 07:01:18;;;;;;;54.03;23.60;;;0.20;99.90;;;;;;5090068;28;20451;-75
2020/12/10 07:03:44;;;;;;;44.80;22.88;;;0.20;99.90;;;;;;5082388;28;20106;-74
2020/12/10 07:06:20;;;;;;;53.53;25.77;;;0.20;99.90;;;;;;5079914;28;20060;-75
2020/12/10 07:09:06;;;;;;;47.95;22.90;;;0.20;99.90;;;;;;5080079;28;20054;-73
2020/12/10 07:11:36;;;;;;;52.70;23.23;;;0.20;99.90;;;;;;5083920;28;20028;-73
2020/12/10 07:14:32;;;;;;;53.38;26.23;;;0.20;99.90;;;;;;5065144;28;20354;-73
2020/12/10 07:16:58;;;;;;;53.70;26.38;;;0.20;99.90;;;;;;5079623;28;20534;-77
2020/12/10 07:19:24;;;;;;;57.83;27.13;;;0.20;99.90;;;;;;5081966;28;20032;-73
2020/12/10 07:21:50;;;;;;;57.72;27.30;;;0.20;99.90;;;;;;5071372;28;20147;-82
2020/12/10 07:24:16;;;;;;;54.28;26.13;;;0.20;99.90;;;;;;5055822;28;20044;-80
2020/12/10 07:26:43;;;;;;;56.03;25.50;;;0.20;99.90;;;;;;5061099;28;20082;-75
2020/12/10 07:29:09;;;;;;;59.85;27.33;;;0.20;99.90;;;;;;5085761;28;20024;-77
2020/12/10 07:31:36;;;;;;;64.55;29.13;;;0.20;99.90;;;;;;5072198;28;20047;-76
2020/12/10 07:34:02;;;;;;;60.42;28.33;;;0.30;99.90;;;;;;5063801;28;20423;-76
2020/12/10 07:36:30;;;;;;;52.95;26.65;;;0.20;99.90;;;;;;5078491;28;20035;-76
2020/12/10 07:38:56;;;;;;;56.83;27.58;;;0.20;99.90;;;;;;5071226;28;20496;-76
2020/12/10 07:41:22;;;;;;;61.85;26.85;;;0.20;99.90;;;;;;5071994;28;20032;-77
2020/12/10 07:44:19;;;;;;;52.38;24.45;;;0.30;99.90;;;;;;5067848;28;20354;-77
2020/12/10 07:46:44;;;;;;;46.63;23.25;;;0.30;99.90;;;;;;5069123;28;20043;-78
2020/12/10 07:49:10;;;;;;;44.90;21.38;;;0.30;99.90;;;;;;5087346;28;20016;-77
2020/12/10 07:51:36;;;;;;;45.33;22.27;;;0.30;99.90;;;;;;5088147;28;20028;-77
2020/12/10 07:54:02;;;;;;;47.60;22.02;;;0.30;99.90;;;;;;5088211;28;20016;-78
2020/12/10 07:56:31;;;;;;;47.45;22.67;;;0.30;99.90;;;;;;5086853;28;20032;-78
2020/12/10 07:59:14;;;;;;;38.65;20.48;;;0.30;99.90;;;;;;5063539;28;20028;-77
2020/12/10 08:01:56;;;;;;;49.15;22.27;;;0.30;99.90;;;;;;5085872;28;20024;-77
2020/12/10 08:04:23;;;;;;;40.63;21.75;;;0.30;99.90;;;;;;5086505;28;20028;-77
2020/12/10 08:06:51;;;;;;;46.83;23.55;;;0.40;99.90;;;;;;5059376;28;20367;-77
2020/12/10 08:09:19;;;;;;;45.28;22.60;;;0.40;99.90;;;;;;5060446;28;20206;-77
2020/12/10 08:11:55;;;;;;;44.17;22.27;;;0.40;99.90;;;;;;5062634;28;20039;-77
2020/12/10 08:14:28;;;;;;;45.15;21.83;;;0.40;99.90;;;;;;5085852;28;20086;-77
2020/12/10 08:16:55;;;;;;;47.53;23.52;;;0.40;99.90;;;;;;5090466;28;20413;-77
2020/12/10 08:19:21;;;;;;;40.72;21.55;;;0.40;99.90;;;;;;5090346;28;20028;-77
2020/12/10 08:21:49;;;;;;;43.17;23.23;;;0.40;99.90;;;;;;5091711;28;20544;-77
2020/12/10 08:24:42;;;;;;;40.20;20.33;;;0.40;99.90;;;;;;5088821;28;20040;-78
2020/12/10 08:27:16;;;;;;;45.65;22.88;;;0.50;99.90;;;;;;5092385;28;20036;-77
2020/12/10 08:29:59;;;;;;;51.47;24.38;;;0.50;99.90;;;;;;5066382;28;20028;-78
2020/12/10 08:32:25;;;;;;;46.88;22.83;;;0.50;99.90;;;;;;5092495;28;20476;-78
2020/12/10 08:35:03;;;;;;;50.67;24.88;;;0.60;99.90;;;;;;5088809;28;20081;-78
2020/12/10 08:37:59;;;;;;;49.53;24.52;;;0.60;99.90;;;;;;5084360;28;20028;-77
2020/12/10 08:40:27;;;;;;;50.88;22.10;;;0.60;99.90;;;;;;5090659;28;20040;-78
2020/12/10 08:42:55;;;;;;;48.80;23.67;;;0.60;99.90;;;;;;5088370;28;20036;-77
2020/12/10 08:45:34;;;;;;;43.55;22.15;;;0.70;99.90;;;;;;5089096;28;20115;-77
2020/12/10 08:48:03;;;;;;;48.45;23.75;;;0.70;99.90;;;;;;5088263;28;20091;-78
2020/12/10 08:50:29;;;;;;;41.25;22.02;;;0.70;99.90;;;;;;5086019;28;20082;-78
2020/12/10 08:53:05;;;;;;;51.20;22.88;;;0.70;99.90;;;;;;5090347;28;20039;-78
2020/12/10 08:55:44;;;;;;;39.50;20.67;;;0.70;99.90;;;;;;5090165;28;20538;-78
2020/12/10 08:58:19;;;;;;;39.78;21.02;;;0.80;99.90;;;;;;5087613;28;20040;-78
2020/12/10 09:00:45;;;;;;;38.72;21.55;;;0.80;99.90;;;;;;5091071;28;20039;-77
2020/12/10 09:03:11;;;;;;;40.08;20.60;;;0.80;99.90;;;;;;5092065;28;20024;-77
2020/12/10 09:05:37;;;;;;;45.40;19.95;;;0.80;99.90;;;;;;5087312;28;20051;-76
2020/12/10 09:08:03;;;;;;;40.17;20.23;;;0.90;99.90;;;;;;5089183;28;20028;-78
2020/12/10 09:10:29;;;;;;;43.90;20.02;;;0.90;99.90;;;;;;5062114;28;20428;-76
2020/12/10 09:12:58;;;;;;;40.92;21.55;;;0.90;99.90;;;;;;5078881;28;20028;-78
2020/12/10 09:15:25;;;;;;;44.60;20.88;;;0.90;99.90;;;;;;5072099;28;20033;-79
2020/12/10 09:17:51;;;;;;;38.97;20.55;;;0.90;99.90;;;;;;5074292;28;20174;-78
2020/12/10 09:20:18;;;;;;;39.55;21.20;;;1.00;99.90;;;;;;5085870;28;20066;-77
2020/12/10 09:22:43;;;;;;;40.13;21.05;;;1.00;99.90;;;;;;5073766;28;20111;-77
2020/12/10 09:25:10;;;;;;;30.88;17.58;;;1.00;99.90;;;;;;5075115;28;20123;-78
2020/12/10 09:27:35;;;;;;;28.40;15.80;;;1.10;99.90;;;;;;5079160;28;20032;-74
2020/12/10 09:30:04;;;;;;;29.30;15.65;;;1.10;99.90;;;;;;5073302;28;20481;-79
2020/12/10 09:32:33;;;;;;;24.73;14.00;;;1.20;99.90;;;;;;5084401;28;20041;-79
2020/12/10 09:35:00;;;;;;;26.85;13.80;;;1.20;99.90;;;;;;5078757;28;20102;-77
2020/12/10 09:37:25;;;;;;;20.52;11.40;;;1.30;99.90;;;;;;5076842;28;20029;-78
2020/12/10 09:39:51;;;;;;;19.52;11.38;;;1.30;99.90;;;;;;5081659;28;20036;-77
2020/12/10 09:42:17;;;;;;;20.63;12.07;;;1.40;99.90;;;;;;5091484;28;20032;-76
2020/12/10 09:44:43;;;;;;;18.05;10.77;;;1.50;99.90;;;;;;5065808;28;20104;-78
2020/12/10 09:47:10;;;;;;;17.25;9.38;;;1.60;99.90;;;;;;5055439;28;20036;-77
2020/12/10 09:49:37;;;;;;;19.02;11.23;;;1.60;99.90;;;;;;5072235;28;20017;-77
2020/12/10 09:52:04;;;;;;;21.48;12.32;;;1.70;99.90;;;;;;5089994;28;20031;-77
2020/12/10 09:54:51;;;;;;;21.08;11.90;;;1.80;99.90;;;;;;5091715;28;20024;-77
2020/12/10 09:59:46;;;;;;;22.70;13.02;;;1.80;99.90;;;;;;5078080;28;20033;-77
2020/12/10 10:02:11;;;;;;;24.52;13.27;;;1.80;99.90;;;;;;5076666;28;20031;-78
2020/12/10 10:04:37;;;;;;;24.60;14.13;;;1.90;99.90;;;;;;5075528;28;20198;-78
2020/12/10 10:07:11;;;;;;;27.45;14.75;;;1.90;99.90;;;;;;5078187;28;20516;-76
2020/12/10 10:09:38;;;;;;;26.95;13.00;;;1.90;99.90;;;;;;5062708;28;20194;-77
2020/12/10 10:12:05;;;;;;;23.70;13.35;;;1.90;99.90;;;;;;5055132;28;20043;-76
2020/12/10 10:14:34;;;;;;;20.45;11.75;;;2.00;99.90;;;;;;5070917;28;20046;-77
2020/12/10 10:17:03;;;;;;;20.73;12.07;;;2.00;99.90;;;;;;5074137;28;20036;-77
2020/12/10 10:19:28;;;;;;;24.80;12.93;;;2.00;99.90;;;;;;5091559;28;20032;-77
2020/12/10 10:22:01;;;;;;;23.85;13.27;;;2.00;99.90;;;;;;5075132;28;20082;-77
2020/12/10 10:24:27;;;;;;;24.13;13.95;;;2.00;99.90;;;;;;5073991;28;20066;-77
2020/12/10 10:26:56;;;;;;;22.45;12.65;;;2.10;99.90;;;;;;5063963;28;20076;-77
2020/12/10 10:29:24;;;;;;;20.55;12.10;;;2.10;99.90;;;;;;5049939;28;20040;-76
2020/12/10 10:31:53;;;;;;;24.75;13.75;;;2.10;99.90;;;;;;5050997;28;20045;-77
2020/12/10 10:34:19;;;;;;;23.02;13.57;;;2.10;99.90;;;;;;5067258;28;20082;-76
2020/12/10 10:36:47;;;;;;;24.15;11.65;;;2.10;99.90;;;;;;5055326;28;20033;-77
2020/12/10 10:39:13;;;;;;;23.33;13.50;;;2.10;99.90;;;;;;5059042;28;20028;-77
2020/12/10 10:41:41;;;;;;;23.20;12.93;;;2.10;99.90;;;;;;5060494;28;20040;-77
2020/12/10 10:44:08;;;;;;;25.05;13.32;;;2.10;99.90;;;;;;5059775;28;20104;-78
2020/12/10 10:46:34;;;;;;;25.10;14.73;;;2.10;99.90;;;;;;5069500;28;20036;-77
2020/12/10 10:49:00;;;;;;;25.65;15.35;;;2.20;99.90;;;;;;5071357;28;20024;-77
2020/12/10 10:51:26;;;;;;;22.00;12.93;;;2.20;99.90;;;;;;5060245;28;20032;-76
2020/12/10 10:53:52;;;;;;;28.60;14.98;;;2.20;99.90;;;;;;5070612;28;20044;-76
2020/12/10 10:56:24;;;;;;;30.73;14.73;;;2.30;99.90;;;;;;5069256;28;20028;-76
2020/12/10 10:58:54;;;;;;;27.13;15.57;;;2.30;99.90;;;;;;5051710;28;20021;-77
2020/12/10 11:01:30;;;;;;;24.27;14.82;;;2.30;99.90;;;;;;5061133;28;20052;-75
2020/12/10 11:03:57;;;;;;;21.70;12.82;;;2.30;99.90;;;;;;5072130;28;20085;-77
2020/12/10 11:06:22;;;;;;;25.35;12.27;;;2.30;99.90;;;;;;5067518;28;20042;-77
2020/12/10 11:08:48;;;;;;;22.85;12.93;;;2.30;99.90;;;;;;5071783;28;20024;-77
2020/12/10 11:11:18;;;;;;;23.05;13.15;;;2.40;99.90;;;;;;5071293;28;20086;-77
2020/12/10 11:13:44;;;;;;;24.23;13.05;;;2.30;99.90;;;;;;5069977;28;20028;-77
2020/12/10 11:16:15;;;;;;;23.17;13.70;;;2.30;99.90;;;;;;5071949;28;20028;-77
2020/12/10 11:18:49;;;;;;;23.08;12.65;;;2.30;99.90;;;;;;5071684;28;20041;-77
2020/12/10 11:21:15;;;;;;;26.50;14.65;;;2.30;99.90;;;;;;5070441;28;20470;-78
2020/12/10 11:23:44;;;;;;;25.85;14.13;;;2.40;99.90;;;;;;5070485;28;20786;-77
2020/12/10 11:26:11;;;;;;;21.38;12.75;;;2.30;99.90;;;;;;5083726;28;20126;-77
2020/12/10 11:28:37;;;;;;;22.80;13.18;;;2.30;99.90;;;;;;5091057;28;20028;-77
2020/12/10 11:31:23;;;;;;;21.65;13.90;;;2.30;99.90;;;;;;5075005;28;20050;-76
2020/12/10 11:33:53;;;;;;;26.13;15.48;;;2.40;99.90;;;;;;5073709;28;20110;-77
2020/12/10 11:36:19;;;;;;;26.05;13.65;;;2.30;99.90;;;;;;5090770;28;20123;-76
2020/12/10 11:38:45;;;;;;;21.90;13.18;;;2.30;99.90;;;;;;5090919;28;20127;-77
2020/12/10 11:41:10;;;;;;;25.73;15.23;;;2.30;99.90;;;;;;5091496;28;20506;-77
2020/12/10 11:43:36;;;;;;;27.48;14.00;;;2.30;99.90;;;;;;5090496;28;20024;-77
2020/12/10 11:46:02;;;;;;;25.42;14.80;;;2.30;99.90;;;;;;5091479;28;20065;-78
2020/12/10 11:48:31;;;;;;;22.23;13.05;;;2.30;99.90;;;;;;5092282;28;20063;-77
2020/12/10 11:50:57;;;;;;;24.90;15.00;;;2.30;99.90;;;;;;5080121;28;20381;-78
2020/12/10 11:53:24;;;;;;;23.85;13.93;;;2.30;99.90;;;;;;5097552;28;20063;-77
2020/12/10 11:55:49;;;;;;;27.65;15.40;;;2.30;99.90;;;;;;5098485;28;20032;-79
2020/12/10 11:58:35;;;;;;;21.85;12.70;;;2.40;99.90;;;;;;5098177;28;20102;-78
2020/12/10 12:01:20;;;;;;;24.25;13.60;;;2.40;99.90;;;;;;5098171;28;20086;-78
2020/12/10 12:03:46;;;;;;;21.80;12.85;;;2.40;99.90;;;;;;5081869;28;20028;-78
2020/12/10 12:06:12;;;;;;;23.80;13.10;;;2.40;99.90;;;;;;5094204;28;20461;-77
2020/12/10 12:08:37;;;;;;;25.20;14.15;;;2.50;99.90;;;;;;5097825;28;20077;-78
2020/12/10 12:11:03;;;;;;;25.05;14.93;;;2.50;99.90;;;;;;5098309;28;20119;-77
2020/12/10 12:13:49;;;;;;;29.67;14.68;;;2.50;99.90;;;;;;5096910;28;20020;-77
2020/12/10 12:16:36;;;;;;;22.95;13.18;;;2.50;99.90;;;;;;5097026;28;20465;-77
2020/12/10 12:19:04;;;;;;;25.67;13.98;;;2.50;99.90;;;;;;5094311;28;20036;-78
2020/12/10 12:21:30;;;;;;;28.52;15.98;;;2.50;99.90;;;;;;5096764;28;20032;-77
2020/12/10 12:23:57;;;;;;;28.02;14.30;;;2.50;99.90;;;;;;5071834;28;20020;-78
2020/12/10 12:26:31;;;;;;;26.55;14.90;;;2.50;99.90;;;;;;5077037;28;20045;-77
2020/12/10 12:28:56;;;;;;;26.92;14.65;;;2.50;99.90;;;;;;5077849;28;20029;-79
2020/12/10 12:31:34;;;;;;;25.45;14.05;;;2.50;99.90;;;;;;5077157;28;20032;-77
2020/12/10 12:34:00;;;;;;;27.42;15.73;;;2.50;99.90;;;;;;5060528;28;20115;-79
2020/12/10 12:36:26;;;;;;;29.73;16.17;;;2.50;99.90;;;;;;5081865;28;20095;-77
2020/12/10 12:38:52;;;;;;;30.20;16.38;;;2.50;99.90;;;;;;5097660;28;20429;-78
2020/12/10 12:41:17;;;;;;;26.92;15.13;;;2.50;99.90;;;;;;5097811;28;20032;-78
2020/12/10 12:43:43;;;;;;;29.65;16.92;;;2.50;99.90;;;;;;5096793;28;20044;-78
2020/12/10 12:46:09;;;;;;;28.00;14.88;;;2.50;99.90;;;;;;5097808;28;20119;-79